sensor_id;sensor_type;location;lat;lon;timestamp;pressure;altitude;pressure_sealevel;temperature;humidity
13695;BME280;6919;52.344;14.518;2023-05-07T00:01:18;101386.97;;;9.63;100.00
13695;BME280;6919;52.344;14.518;2023-05-07T00:03:46;101383.00;;;9.57;100.00
13695;BME280;6919;52.344;14.518;2023-05-07T00:06:15;101372.91;;;9.50;100.00
13695;BME280;6919;52.344;14.518;2023-05-07T00:08:43;101380.31;;;9.46;100.00
13695;BME280;6919;52.344;14.518;2023-05-07T00:11:11;101377.28;;;9.51;100.00
13695;BME280;6919;52.344;14.518;2023-05-07T00:13:39;101389.91;;;9.60;100.00
13695;BME280;6919;52.344;14.518;2023-05-07T00:16:08;101389.78;;;9.61;100.00
13695;BME280;6919;52.344;14.518;2023-05-07T00:18:37;101389.41;;;9.55;100.00
13695;BME280;6919;52.344;14.518;2023-05-07T00:21:06;101393.34;;;9.51;100.00
13695;BME280;6919;52.344;14.518;2023-05-07T00:23:34;101388.97;;;9.50;100.00
13695;BME280;6919;52.344;14.518;2023-05-07T00:26:02;101382.22;;;9.35;100.00
13695;BME280;6919;52.344;14.518;2023-05-07T00:28:30;101384.16;;;9.33;100.00
13695;BME280;6919;52.344;14.518;2023-05-07T00:30:59;101390.47;;;9.43;100.00
13695;BME280;6919;52.344;14.518;2023-05-07T00:33:27;101388.66;;;9.43;100.00
13695;BME280;6919;52.344;14.518;2023-05-07T00:35:56;101392.16;;;9.44;100.00
13695;BME280;6919;52.344;14.518;2023-05-07T00:38:25;101391.91;;;9.47;100.00
13695;BME280;6919;52.344;14.518;2023-05-07T00:40:53;101394.69;;;9.45;100.00
13695;BME280;6919;52.344;14.518;2023-05-07T00:43:21;101394.44;;;9.48;100.00
13695;BME280;6919;52.344;14.518;2023-05-07T00:45:49;101395.50;;;9.57;100.00
13695;BME280;6919;52.344;14.518;2023-05-07T00:48:18;101390.22;;;9.46;100.00
13695;BME280;6919;52.344;14.518;2023-05-07T00:50:47;101396.88;;;9.51;100.00
13695;BME280;6919;52.344;14.518;2023-05-07T00:53:17;101393.50;;;9.38;100.00
13695;BME280;6919;52.344;14.518;2023-05-07T00:55:45;101393.44;;;9.29;100.00
13695;BME280;6919;52.344;14.518;2023-05-07T00:58:14;101397.28;;;9.36;100.00
13695;BME280;6919;52.344;14.518;2023-05-07T01:00:42;101401.78;;;9.35;100.00
13695;BME280;6919;52.344;14.518;2023-05-07T01:03:10;101399.56;;;9.51;100.00
13695;BME280;6919;52.344;14.518;2023-05-07T01:05:39;101396.38;;;9.46;100.00
13695;BME280;6919;52.344;14.518;2023-05-07T01:08:09;101381.84;;;9.39;100.00
13695;BME280;6919;52.344;14.518;2023-05-07T01:10:39;101389.34;;;9.45;100.00
13695;BME280;6919;52.344;14.518;2023-05-07T01:13:10;101384.97;;;9.44;100.00
13695;BME280;6919;52.344;14.518;2023-05-07T01:15:40;101380.88;;;9.40;100.00
13695;BME280;6919;52.344;14.518;2023-05-07T01:18:08;101387.44;;;9.36;100.00
13695;BME280;6919;52.344;14.518;2023-05-07T01:20:37;101384.78;;;9.36;100.00
13695;BME280;6919;52.344;14.518;2023-05-07T01:23:07;101381.63;;;9.31;100.00
13695;BME280;6919;52.344;14.518;2023-05-07T01:25:36;101385.47;;;9.38;100.00
13695;BME280;6919;52.344;14.518;2023-05-07T01:28:05;101382.38;;;9.22;100.00
13695;BME280;6919;52.344;14.518;2023-05-07T01:30:34;101382.00;;;9.27;100.00
13695;BME280;6919;52.344;14.518;2023-05-07T01:33:09;101381.41;;;9.23;100.00
13695;BME280;6919;52.344;14.518;2023-05-07T01:35:41;101385.09;;;9.11;100.00
13695;BME280;6919;52.344;14.518;2023-05-07T01:38:13;101386.94;;;8.99;100.00
13695;BME280;6919;52.344;14.518;2023-05-07T01:40:43;101388.53;;;9.02;100.00
13695;BME280;6919;52.344;14.518;2023-05-07T01:43:11;101397.03;;;8.96;100.00
13695;BME280;6919;52.344;14.518;2023-05-07T01:45:41;101398.00;;;9.06;100.00
13695;BME280;6919;52.344;14.518;2023-05-07T01:48:11;101402.50;;;8.94;100.00
13695;BME280;6919;52.344;14.518;2023-05-07T01:50:40;101397.53;;;9.01;100.00
13695;BME280;6919;52.344;14.518;2023-05-07T01:53:09;101407.97;;;9.04;100.00
13695;BME280;6919;52.344;14.518;2023-05-07T01:55:38;101406.09;;;9.16;100.00
13695;BME280;6919;52.344;14.518;2023-05-07T01:58:07;101408.19;;;9.12;100.00
13695;BME280;6919;52.344;14.518;2023-05-07T02:00:35;101405.78;;;9.09;100.00
13695;BME280;6919;52.344;14.518;2023-05-07T02:03:03;101410.00;;;9.12;100.00
13695;BME280;6919;52.344;14.518;2023-05-07T02:05:32;101405.16;;;9.17;100.00
13695;BME280;6919;52.344;14.518;2023-05-07T02:08:00;101405.19;;;9.06;100.00
13695;BME280;6919;52.344;14.518;2023-05-07T02:10:29;101404.19;;;9.07;100.00
13695;BME280;6919;52.344;14.518;2023-05-07T02:12:58;101413.34;;;9.04;100.00
13695;BME280;6919;52.344;14.518;2023-05-07T02:15:28;101416.47;;;9.09;100.00
13695;BME280;6919;52.344;14.518;2023-05-07T02:18:02;101420.84;;;9.10;100.00
13695;BME280;6919;52.344;14.518;2023-05-07T02:20:31;101415.84;;;9.17;100.00
13695;BME280;6919;52.344;14.518;2023-05-07T02:22:59;101420.97;;;8.97;100.00
13695;BME280;6919;52.344;14.518;2023-05-07T02:25:28;101426.44;;;9.07;100.00
13695;BME280;6919;52.344;14.518;2023-05-07T02:27:58;101426.94;;;9.12;100.00
13695;BME280;6919;52.344;14.518;2023-05-07T02:30:26;101416.94;;;9.14;100.00
13695;BME280;6919;52.344;14.518;2023-05-07T02:32:55;101416.22;;;9.12;100.00
13695;BME280;6919;52.344;14.518;2023-05-07T02:35:24;101412.69;;;9.12;100.00
13695;BME280;6919;52.344;14.518;2023-05-07T02:37:52;101418.56;;;9.06;100.00
13695;BME280;6919;52.344;14.518;2023-05-07T02:40:21;101428.88;;;8.99;100.00
13695;BME280;6919;52.344;14.518;2023-05-07T02:42:49;101425.50;;;8.97;100.00
13695;BME280;6919;52.344;14.518;2023-05-07T02:45:19;101426.34;;;8.97;100.00
13695;BME280;6919;52.344;14.518;2023-05-07T02:47:47;101424.53;;;8.87;100.00
13695;BME280;6919;52.344;14.518;2023-05-07T02:50:15;101430.00;;;8.96;100.00
13695;BME280;6919;52.344;14.518;2023-05-07T02:52:43;101435.59;;;8.93;100.00
13695;BME280;6919;52.344;14.518;2023-05-07T02:55:12;101433.53;;;8.97;100.00
13695;BME280;6919;52.344;14.518;2023-05-07T02:57:40;101426.09;;;8.89;100.00
13695;BME280;6919;52.344;14.518;2023-05-07T03:00:13;101425.09;;;9.01;100.00
13695;BME280;6919;52.344;14.518;2023-05-07T03:02:43;101437.03;;;8.97;100.00
13695;BME280;6919;52.344;14.518;2023-05-07T03:05:12;101443.97;;;8.89;100.00
13695;BME280;6919;52.344;14.518;2023-05-07T03:07:41;101440.06;;;8.93;100.00
13695;BME280;6919;52.344;14.518;2023-05-07T03:10:12;101441.41;;;8.87;100.00
13695;BME280;6919;52.344;14.518;2023-05-07T03:12:40;101454.19;;;8.95;100.00
13695;BME280;6919;52.344;14.518;2023-05-07T03:15:10;101448.34;;;9.01;100.00
13695;BME280;6919;52.344;14.518;2023-05-07T03:17:39;101453.72;;;8.90;100.00
13695;BME280;6919;52.344;14.518;2023-05-07T03:20:10;101457.34;;;8.89;100.00
13695;BME280;6919;52.344;14.518;2023-05-07T03:22:40;101451.63;;;8.93;100.00
13695;BME280;6919;52.344;14.518;2023-05-07T03:25:10;101451.25;;;8.98;100.00
13695;BME280;6919;52.344;14.518;2023-05-07T03:27:38;101460.00;;;9.11;100.00
13695;BME280;6919;52.344;14.518;2023-05-07T03:30:10;101449.91;;;9.15;100.00
13695;BME280;6919;52.344;14.518;2023-05-07T03:32:39;101456.38;;;9.01;100.00
13695;BME280;6919;52.344;14.518;2023-05-07T03:35:08;101457.19;;;9.01;100.00
13695;BME280;6919;52.344;14.518;2023-05-07T03:37:38;101458.78;;;8.93;100.00
13695;BME280;6919;52.344;14.518;2023-05-07T03:40:07;101453.97;;;8.87;100.00
13695;BME280;6919;52.344;14.518;2023-05-07T03:42:37;101458.94;;;8.91;100.00
13695;BME280;6919;52.344;14.518;2023-05-07T03:45:08;101454.19;;;8.84;100.00
13695;BME280;6919;52.344;14.518;2023-05-07T03:47:36;101463.78;;;8.86;100.00
13695;BME280;6919;52.344;14.518;2023-05-07T03:50:05;101456.88;;;8.84;100.00
13695;BME280;6919;52.344;14.518;2023-05-07T03:52:35;101461.00;;;8.77;100.00
13695;BME280;6919;52.344;14.518;2023-05-07T03:55:04;101460.25;;;8.86;100.00
13695;BME280;6919;52.344;14.518;2023-05-07T03:57:32;101464.53;;;8.88;100.00
13695;BME280;6919;52.344;14.518;2023-05-07T04:00:00;101465.59;;;8.86;100.00
13695;BME280;6919;52.344;14.518;2023-05-07T04:02:30;101472.28;;;8.80;100.00
13695;BME280;6919;52.344;14.518;2023-05-07T04:04:58;101470.72;;;8.78;100.00
13695;BME280;6919;52.344;14.518;2023-05-07T04:07:27;101470.47;;;8.81;100.00
13695;BME280;6919;52.344;14.518;2023-05-07T04:09:56;101474.50;;;8.86;100.00
13695;BME280;6919;52.344;14.518;2023-05-07T04:12:25;101469.50;;;8.93;100.00
13695;BME280;6919;52.344;14.518;2023-05-07T04:14:53;101467.44;;;8.85;100.00
13695;BME280;6919;52.344;14.518;2023-05-07T04:17:21;101461.72;;;9.01;100.00
13695;BME280;6919;52.344;14.518;2023-05-07T04:19:50;101467.06;;;9.12;100.00
13695;BME280;6919;52.344;14.518;2023-05-07T04:22:18;101456.34;;;9.12;100.00
13695;BME280;6919;52.344;14.518;2023-05-07T04:24:46;101459.88;;;9.13;100.00
13695;BME280;6919;52.344;14.518;2023-05-07T04:27:15;101463.50;;;9.23;100.00
13695;BME280;6919;52.344;14.518;2023-05-07T04:29:44;101456.38;;;9.44;100.00
13695;BME280;6919;52.344;14.518;2023-05-07T04:32:14;101458.88;;;9.67;100.00
13695;BME280;6919;52.344;14.518;2023-05-07T04:34:42;101452.63;;;9.98;100.00
13695;BME280;6919;52.344;14.518;2023-05-07T04:37:10;101460.53;;;10.31;100.00
13695;BME280;6919;52.344;14.518;2023-05-07T04:39:39;101463.41;;;10.39;100.00
13695;BME280;6919;52.344;14.518;2023-05-07T04:42:07;101461.84;;;10.37;100.00
13695;BME280;6919;52.344;14.518;2023-05-07T04:44:37;101462.63;;;10.28;100.00
13695;BME280;6919;52.344;14.518;2023-05-07T04:47:06;101471.53;;;10.28;100.00
13695;BME280;6919;52.344;14.518;2023-05-07T04:49:34;101472.09;;;10.32;100.00
13695;BME280;6919;52.344;14.518;2023-05-07T04:52:03;101462.53;;;10.39;100.00
13695;BME280;6919;52.344;14.518;2023-05-07T04:54:31;101463.06;;;10.53;100.00
13695;BME280;6919;52.344;14.518;2023-05-07T04:56:59;101468.91;;;10.38;100.00
13695;BME280;6919;52.344;14.518;2023-05-07T04:59:28;101465.16;;;10.29;100.00
13695;BME280;6919;52.344;14.518;2023-05-07T05:01:58;101469.47;;;10.41;100.00
13695;BME280;6919;52.344;14.518;2023-05-07T05:04:27;101473.66;;;10.55;100.00
13695;BME280;6919;52.344;14.518;2023-05-07T05:06:55;101477.41;;;10.73;100.00
13695;BME280;6919;52.344;14.518;2023-05-07T05:09:23;101486.50;;;10.81;100.00
13695;BME280;6919;52.344;14.518;2023-05-07T05:11:51;101489.78;;;10.64;100.00
13695;BME280;6919;52.344;14.518;2023-05-07T05:14:20;101488.28;;;10.71;100.00
13695;BME280;6919;52.344;14.518;2023-05-07T05:16:48;101482.84;;;10.92;100.00
13695;BME280;6919;52.344;14.518;2023-05-07T05:19:18;101485.00;;;10.98;100.00
13695;BME280;6919;52.344;14.518;2023-05-07T05:21:46;101483.44;;;10.95;100.00
13695;BME280;6919;52.344;14.518;2023-05-07T05:24:14;101489.75;;;10.85;100.00
13695;BME280;6919;52.344;14.518;2023-05-07T05:26:43;101494.41;;;10.83;100.00
13695;BME280;6919;52.344;14.518;2023-05-07T05:29:11;101502.13;;;11.06;100.00
13695;BME280;6919;52.344;14.518;2023-05-07T05:31:39;101495.63;;;11.39;100.00
13695;BME280;6919;52.344;14.518;2023-05-07T05:34:08;101488.34;;;11.20;100.00
13695;BME280;6919;52.344;14.518;2023-05-07T05:36:38;101498.50;;;11.17;100.00
13695;BME280;6919;52.344;14.518;2023-05-07T05:39:06;101495.91;;;11.45;100.00
13695;BME280;6919;52.344;14.518;2023-05-07T05:41:35;101493.06;;;11.47;100.00
13695;BME280;6919;52.344;14.518;2023-05-07T05:44:04;101492.34;;;11.35;100.00
13695;BME280;6919;52.344;14.518;2023-05-07T05:46:32;101496.84;;;11.35;100.00
13695;BME280;6919;52.344;14.518;2023-05-07T05:49:03;101502.19;;;11.25;100.00
13695;BME280;6919;52.344;14.518;2023-05-07T05:51:31;101503.50;;;11.40;100.00
13695;BME280;6919;52.344;14.518;2023-05-07T05:54:01;101496.81;;;11.25;100.00
13695;BME280;6919;52.344;14.518;2023-05-07T05:56:29;101497.38;;;11.19;100.00
13695;BME280;6919;52.344;14.518;2023-05-07T05:58:57;101499.41;;;11.46;100.00
13695;BME280;6919;52.344;14.518;2023-05-07T06:01:26;101504.38;;;11.50;100.00
13695;BME280;6919;52.344;14.518;2023-05-07T06:03:54;101499.03;;;11.60;100.00
13695;BME280;6919;52.344;14.518;2023-05-07T06:06:22;101495.56;;;11.98;100.00
13695;BME280;6919;52.344;14.518;2023-05-07T06:08:51;101507.44;;;11.95;100.00
13695;BME280;6919;52.344;14.518;2023-05-07T06:11:21;101504.16;;;11.63;100.00
13695;BME280;6919;52.344;14.518;2023-05-07T06:13:49;101499.63;;;11.63;100.00
13695;BME280;6919;52.344;14.518;2023-05-07T06:16:17;101491.34;;;12.05;100.00
13695;BME280;6919;52.344;14.518;2023-05-07T06:18:46;101490.44;;;12.23;100.00
13695;BME280;6919;52.344;14.518;2023-05-07T06:21:14;101498.34;;;12.53;100.00
13695;BME280;6919;52.344;14.518;2023-05-07T06:23:43;101499.34;;;12.89;100.00
13695;BME280;6919;52.344;14.518;2023-05-07T06:26:11;101504.13;;;13.04;100.00
13695;BME280;6919;52.344;14.518;2023-05-07T06:28:41;101507.88;;;12.84;100.00
13695;BME280;6919;52.344;14.518;2023-05-07T06:31:14;101504.69;;;13.35;100.00
13695;BME280;6919;52.344;14.518;2023-05-07T06:33:44;101501.78;;;13.28;100.00
13695;BME280;6919;52.344;14.518;2023-05-07T06:36:13;101507.31;;;13.27;100.00
13695;BME280;6919;52.344;14.518;2023-05-07T06:38:42;101518.69;;;13.48;100.00
13695;BME280;6919;52.344;14.518;2023-05-07T06:41:10;101511.91;;;13.44;100.00
13695;BME280;6919;52.344;14.518;2023-05-07T06:43:40;101514.88;;;13.41;100.00
13695;BME280;6919;52.344;14.518;2023-05-07T06:46:08;101512.50;;;13.38;100.00
13695;BME280;6919;52.344;14.518;2023-05-07T06:48:36;101520.41;;;13.39;100.00
13695;BME280;6919;52.344;14.518;2023-05-07T06:51:05;101533.75;;;13.41;100.00
13695;BME280;6919;52.344;14.518;2023-05-07T06:53:34;101517.97;;;13.19;100.00
13695;BME280;6919;52.344;14.518;2023-05-07T06:56:03;101518.78;;;13.29;100.00
13695;BME280;6919;52.344;14.518;2023-05-07T06:58:31;101525.91;;;13.47;100.00
13695;BME280;6919;52.344;14.518;2023-05-07T07:01:01;101525.38;;;13.61;100.00
13695;BME280;6919;52.344;14.518;2023-05-07T07:03:30;101518.44;;;13.41;100.00
13695;BME280;6919;52.344;14.518;2023-05-07T07:05:58;101518.22;;;13.25;100.00
13695;BME280;6919;52.344;14.518;2023-05-07T07:08:26;101524.66;;;13.15;100.00
13695;BME280;6919;52.344;14.518;2023-05-07T07:10:55;101524.84;;;13.04;100.00
13695;BME280;6919;52.344;14.518;2023-05-07T07:13:23;101532.22;;;13.02;100.00
13695;BME280;6919;52.344;14.518;2023-05-07T07:15:52;101538.66;;;13.18;100.00
13695;BME280;6919;52.344;14.518;2023-05-07T07:18:22;101542.59;;;13.24;100.00
13695;BME280;6919;52.344;14.518;2023-05-07T07:20:50;101547.13;;;13.33;100.00
13695;BME280;6919;52.344;14.518;2023-05-07T07:23:19;101547.50;;;13.11;100.00
13695;BME280;6919;52.344;14.518;2023-05-07T07:25:47;101546.13;;;12.88;100.00
13695;BME280;6919;52.344;14.518;2023-05-07T07:28:15;101550.28;;;12.73;100.00
13695;BME280;6919;52.344;14.518;2023-05-07T07:30:43;101548.97;;;12.77;100.00
13695;BME280;6919;52.344;14.518;2023-05-07T07:33:12;101556.16;;;13.05;100.00
13695;BME280;6919;52.344;14.518;2023-05-07T07:35:41;101560.63;;;13.50;100.00
13695;BME280;6919;52.344;14.518;2023-05-07T07:38:10;101559.63;;;13.78;100.00
13695;BME280;6919;52.344;14.518;2023-05-07T07:40:39;101556.63;;;14.43;100.00
13695;BME280;6919;52.344;14.518;2023-05-07T07:43:07;101563.03;;;14.68;100.00
13695;BME280;6919;52.344;14.518;2023-05-07T07:45:35;101567.25;;;14.45;100.00
13695;BME280;6919;52.344;14.518;2023-05-07T07:48:04;101573.09;;;14.23;100.00
13695;BME280;6919;52.344;14.518;2023-05-07T07:50:33;101570.66;;;14.20;100.00
13695;BME280;6919;52.344;14.518;2023-05-07T07:53:12;101570.41;;;14.23;100.00
13695;BME280;6919;52.344;14.518;2023-05-07T07:55:41;101576.44;;;14.07;100.00
13695;BME280;6919;52.344;14.518;2023-05-07T07:58:09;101574.19;;;13.85;100.00
13695;BME280;6919;52.344;14.518;2023-05-07T08:00:37;101581.38;;;13.50;100.00
13695;BME280;6919;52.344;14.518;2023-05-07T08:03:06;101583.38;;;13.92;100.00
13695;BME280;6919;52.344;14.518;2023-05-07T08:05:37;101573.94;;;14.58;100.00
13695;BME280;6919;52.344;14.518;2023-05-07T08:08:05;101572.69;;;14.18;100.00
13695;BME280;6919;52.344;14.518;2023-05-07T08:10:35;101580.44;;;13.59;100.00
13695;BME280;6919;52.344;14.518;2023-05-07T08:13:06;101574.72;;;14.33;100.00
13695;BME280;6919;52.344;14.518;2023-05-07T08:15:34;101573.88;;;14.33;100.00
13695;BME280;6919;52.344;14.518;2023-05-07T08:18:03;101576.28;;;14.36;100.00
13695;BME280;6919;52.344;14.518;2023-05-07T08:20:31;101574.59;;;14.35;100.00
13695;BME280;6919;52.344;14.518;2023-05-07T08:23:00;101576.84;;;14.12;100.00
13695;BME280;6919;52.344;14.518;2023-05-07T08:25:28;101568.91;;;14.11;100.00
13695;BME280;6919;52.344;14.518;2023-05-07T08:27:58;101575.06;;;14.03;100.00
13695;BME280;6919;52.344;14.518;2023-05-07T08:30:26;101583.56;;;14.08;100.00
13695;BME280;6919;52.344;14.518;2023-05-07T08:32:54;101570.81;;;14.01;100.00
13695;BME280;6919;52.344;14.518;2023-05-07T08:35:23;101580.75;;;14.00;100.00
13695;BME280;6919;52.344;14.518;2023-05-07T08:37:52;101576.22;;;13.56;100.00
13695;BME280;6919;52.344;14.518;2023-05-07T08:40:22;101591.53;;;14.00;100.00
13695;BME280;6919;52.344;14.518;2023-05-07T08:42:53;101585.16;;;14.19;100.00
13695;BME280;6919;52.344;14.518;2023-05-07T08:45:24;101578.03;;;14.27;100.00
13695;BME280;6919;52.344;14.518;2023-05-07T08:47:58;101581.72;;;14.44;100.00
13695;BME280;6919;52.344;14.518;2023-05-07T08:50:26;101580.66;;;14.54;100.00
13695;BME280;6919;52.344;14.518;2023-05-07T08:52:55;101578.34;;;14.42;100.00
13695;BME280;6919;52.344;14.518;2023-05-07T08:55:24;101581.00;;;15.03;100.00
13695;BME280;6919;52.344;14.518;2023-05-07T08:57:53;101589.88;;;15.21;100.00
13695;BME280;6919;52.344;14.518;2023-05-07T09:00:23;101586.22;;;15.22;100.00
13695;BME280;6919;52.344;14.518;2023-05-07T09:02:52;101588.78;;;15.06;100.00
13695;BME280;6919;52.344;14.518;2023-05-07T09:05:20;101587.69;;;15.16;100.00
13695;BME280;6919;52.344;14.518;2023-05-07T09:07:48;101593.28;;;15.23;100.00
13695;BME280;6919;52.344;14.518;2023-05-07T09:10:21;101585.91;;;15.33;100.00
13695;BME280;6919;52.344;14.518;2023-05-07T09:12:50;101591.06;;;15.18;100.00
13695;BME280;6919;52.344;14.518;2023-05-07T09:15:19;101583.81;;;15.19;100.00
13695;BME280;6919;52.344;14.518;2023-05-07T09:17:48;101589.81;;;15.05;100.00
13695;BME280;6919;52.344;14.518;2023-05-07T09:20:17;101595.22;;;15.05;100.00
13695;BME280;6919;52.344;14.518;2023-05-07T09:22:45;101581.00;;;15.03;100.00
13695;BME280;6919;52.344;14.518;2023-05-07T09:25:13;101596.41;;;14.85;100.00
13695;BME280;6919;52.344;14.518;2023-05-07T09:27:42;101592.13;;;14.74;100.00
13695;BME280;6919;52.344;14.518;2023-05-07T09:30:12;101593.22;;;14.46;100.00
13695;BME280;6919;52.344;14.518;2023-05-07T09:32:41;101593.09;;;14.73;100.00
13695;BME280;6919;52.344;14.518;2023-05-07T09:35:17;101590.28;;;14.57;100.00
13695;BME280;6919;52.344;14.518;2023-05-07T09:37:48;101592.88;;;15.10;100.00
13695;BME280;6919;52.344;14.518;2023-05-07T09:40:24;101597.53;;;15.25;99.12
13695;BME280;6919;52.344;14.518;2023-05-07T09:42:52;101596.81;;;14.90;100.00
13695;BME280;6919;52.344;14.518;2023-05-07T09:45:25;101606.69;;;14.81;100.00
13695;BME280;6919;52.344;14.518;2023-05-07T09:47:56;101602.38;;;14.70;100.00
13695;BME280;6919;52.344;14.518;2023-05-07T09:50:29;101596.03;;;14.80;100.00
13695;BME280;6919;52.344;14.518;2023-05-07T09:52:58;101604.34;;;15.04;100.00
13695;BME280;6919;52.344;14.518;2023-05-07T09:55:27;101601.66;;;15.12;100.00
13695;BME280;6919;52.344;14.518;2023-05-07T09:57:57;101592.06;;;15.17;100.00
13695;BME280;6919;52.344;14.518;2023-05-07T10:00:28;101596.47;;;15.44;100.00
13695;BME280;6919;52.344;14.518;2023-05-07T10:02:58;101590.94;;;15.53;100.00
13695;BME280;6919;52.344;14.518;2023-05-07T10:05:30;101595.78;;;15.42;100.00
13695;BME280;6919;52.344;14.518;2023-05-07T10:07:59;101598.84;;;15.39;100.00
13695;BME280;6919;52.344;14.518;2023-05-07T10:10:32;101586.84;;;15.41;100.00
13695;BME280;6919;52.344;14.518;2023-05-07T10:13:02;101585.03;;;15.50;99.83
13695;BME280;6919;52.344;14.518;2023-05-07T10:15:34;101592.34;;;15.32;100.00
13695;BME280;6919;52.344;14.518;2023-05-07T10:18:04;101598.88;;;15.29;100.00
13695;BME280;6919;52.344;14.518;2023-05-07T10:20:37;101596.34;;;15.53;99.95
13695;BME280;6919;52.344;14.518;2023-05-07T10:23:07;101601.88;;;15.77;99.12
13695;BME280;6919;52.344;14.518;2023-05-07T10:25:36;101610.69;;;15.87;97.28
13695;BME280;6919;52.344;14.518;2023-05-07T10:28:08;101600.41;;;15.99;95.29
13695;BME280;6919;52.344;14.518;2023-05-07T10:30:50;101597.88;;;15.97;95.41
13695;BME280;6919;52.344;14.518;2023-05-07T10:33:30;101600.94;;;16.10;91.29
13695;BME280;6919;52.344;14.518;2023-05-07T10:36:02;101599.22;;;15.93;87.64
13695;BME280;6919;52.344;14.518;2023-05-07T10:38:31;101599.00;;;15.79;86.53
13695;BME280;6919;52.344;14.518;2023-05-07T10:41:00;101588.78;;;15.57;87.70
13695;BME280;6919;52.344;14.518;2023-05-07T10:43:39;101596.03;;;15.56;95.05
13695;BME280;6919;52.344;14.518;2023-05-07T10:46:15;101595.59;;;15.77;92.71
13695;BME280;6919;52.344;14.518;2023-05-07T10:49:09;101594.09;;;15.82;94.07
13695;BME280;6919;52.344;14.518;2023-05-07T10:51:40;101601.06;;;15.85;90.92
13695;BME280;6919;52.344;14.518;2023-05-07T10:54:22;101596.06;;;15.64;90.02
13695;BME280;6919;52.344;14.518;2023-05-07T10:56:54;101596.78;;;15.74;88.46
13695;BME280;6919;52.344;14.518;2023-05-07T10:59:36;101593.22;;;15.74;91.45
13695;BME280;6919;52.344;14.518;2023-05-07T11:02:10;101594.00;;;15.92;85.44
13695;BME280;6919;52.344;14.518;2023-05-07T11:04:41;101600.69;;;15.80;90.45
13695;BME280;6919;52.344;14.518;2023-05-07T11:07:29;101594.94;;;15.75;86.44
13695;BME280;6919;52.344;14.518;2023-05-07T11:10:00;101596.09;;;15.72;86.91
13695;BME280;6919;52.344;14.518;2023-05-07T11:12:53;101594.25;;;15.81;83.01
13695;BME280;6919;52.344;14.518;2023-05-07T11:15:40;101588.75;;;15.90;87.20
13695;BME280;6919;52.344;14.518;2023-05-07T11:18:12;101596.16;;;15.80;86.93
13695;BME280;6919;52.344;14.518;2023-05-07T11:20:56;101595.75;;;15.75;86.48
13695;BME280;6919;52.344;14.518;2023-05-07T11:23:58;101593.63;;;15.87;83.86
13695;BME280;6919;52.344;14.518;2023-05-07T11:26:29;101590.88;;;15.71;81.77
13695;BME280;6919;52.344;14.518;2023-05-07T11:28:58;101597.09;;;15.63;87.01
13695;BME280;6919;52.344;14.518;2023-05-07T11:31:28;101587.69;;;15.83;85.56
13695;BME280;6919;52.344;14.518;2023-05-07T11:33:57;101586.88;;;15.91;85.14
13695;BME280;6919;52.344;14.518;2023-05-07T11:36:31;101584.38;;;15.97;82.05
13695;BME280;6919;52.344;14.518;2023-05-07T11:39:01;101591.59;;;15.89;83.86
13695;BME280;6919;52.344;14.518;2023-05-07T11:41:36;101587.41;;;16.10;81.19
13695;BME280;6919;52.344;14.518;2023-05-07T11:44:05;101585.44;;;16.36;85.68
13695;BME280;6919;52.344;14.518;2023-05-07T11:46:33;101582.72;;;16.28;77.56
13695;BME280;6919;52.344;14.518;2023-05-07T11:49:02;101581.19;;;16.26;77.34
13695;BME280;6919;52.344;14.518;2023-05-07T11:51:30;101586.16;;;16.70;76.65
13695;BME280;6919;52.344;14.518;2023-05-07T11:54:00;101585.13;;;17.03;69.04
13695;BME280;6919;52.344;14.518;2023-05-07T11:56:34;101595.72;;;17.45;65.98
13695;BME280;6919;52.344;14.518;2023-05-07T11:59:03;101595.91;;;17.82;66.97
13695;BME280;6919;52.344;14.518;2023-05-07T12:01:31;101586.59;;;17.77;61.13
13695;BME280;6919;52.344;14.518;2023-05-07T12:04:03;101588.34;;;18.31;59.66
13695;BME280;6919;52.344;14.518;2023-05-07T12:06:37;101592.53;;;18.64;61.95
13695;BME280;6919;52.344;14.518;2023-05-07T12:09:07;101599.44;;;18.89;66.12
13695;BME280;6919;52.344;14.518;2023-05-07T12:11:38;101599.59;;;19.24;62.19
13695;BME280;6919;52.344;14.518;2023-05-07T12:14:08;101604.53;;;19.06;55.43
13695;BME280;6919;52.344;14.518;2023-05-07T12:16:40;101604.84;;;19.11;60.28
13695;BME280;6919;52.344;14.518;2023-05-07T12:19:08;101605.34;;;19.29;56.08
13695;BME280;6919;52.344;14.518;2023-05-07T12:21:42;101609.88;;;19.37;55.23
13695;BME280;6919;52.344;14.518;2023-05-07T12:24:11;101608.78;;;19.09;55.62
13695;BME280;6919;52.344;14.518;2023-05-07T12:26:43;101592.69;;;18.40;55.28
13695;BME280;6919;52.344;14.518;2023-05-07T12:29:11;101597.66;;;19.33;53.96
13695;BME280;6919;52.344;14.518;2023-05-07T12:31:41;101596.44;;;18.84;53.81
13695;BME280;6919;52.344;14.518;2023-05-07T12:34:11;101590.25;;;19.56;53.44
13695;BME280;6919;52.344;14.518;2023-05-07T12:36:40;101607.25;;;19.43;53.18
13695;BME280;6919;52.344;14.518;2023-05-07T12:39:10;101600.41;;;19.62;54.51
13695;BME280;6919;52.344;14.518;2023-05-07T12:41:53;101608.00;;;19.15;50.79
13695;BME280;6919;52.344;14.518;2023-05-07T12:44:23;101605.94;;;18.43;53.13
13695;BME280;6919;52.344;14.518;2023-05-07T12:46:52;101606.44;;;17.77;55.55
13695;BME280;6919;52.344;14.518;2023-05-07T12:49:20;101601.16;;;17.21;57.73
13695;BME280;6919;52.344;14.518;2023-05-07T12:51:51;101594.38;;;17.25;63.89
13695;BME280;6919;52.344;14.518;2023-05-07T12:54:31;101607.38;;;18.23;58.70
13695;BME280;6919;52.344;14.518;2023-05-07T12:57:02;101608.41;;;17.91;57.58
13695;BME280;6919;52.344;14.518;2023-05-07T12:59:35;101603.13;;;17.59;58.34